FW6247 Weather Reports


Display with metric or nautical units.
time (UTC)temp
F
wind
direction
speed
MPH
gust
MPH
rain 1hr
in
rain 24hr
in
rain mn
in
humidity
%
barometer
mb
20230129180033 18 166 3.0 6.0 0.00 0.03 0.00 65 1033.9
20230129174534 18 168 2.0 5.0 0.00 0.03 0.00 65 1033.9
20230129173032 16 156 3.0 7.0 0.00 0.03 0.00 65 1033.8
20230129171605 16 162 5.0 7.0 0.00 0.03 0.00 67 1033.4
20230129170033 15 166 3.0 7.0 0.00 0.03 0.00 69 1033.1
20230129164533 13 159 3.0 5.0 0.00 0.03 0.00 69 1032.8
20230129163029 13 157 3.0 5.0 0.00 0.03 0.00 69 1032.7
20230129161531 13 163 3.0 5.0 0.00 0.03 0.00 69 1032.6
20230129160033 13 136 0.0 3.0 0.00 0.03 0.00 68 1032.4
20230129154530 14 81 0.0 1.0 0.00 0.03 0.00 68 1032.1
20230129153034 14 88 0.0 5.0 0.00 0.03 0.00 69 1031.9
20230129151604 13 159 3.0 7.0 0.00 0.03 0.00 70 1031.8
20230129150038 14 135 1.0 7.0 0.00 0.03 0.00 70 1031.5
20230129144533 14 29 0.0 2.0 0.00 0.03 0.00 71 1031.1
20230129143032 15 232 0.0 5.0 0.00 0.03 0.00 70 1031.0
20230129141541 16 110 1.0 5.0 0.00 0.03 0.00 70 1030.9
20230129140111 16 85 1.0 4.0 0.00 0.03 0.00 71 1030.8
20230129134532 16 121 0.0 3.0 0.00 0.03 0.00 72 1030.7
20230129133030 17 135 0.0 4.0 0.00 0.03 0.00 71 1030.6
20230129130147 16 128 1.0 4.0 0.00 0.03 0.00 73 1030.3
20230129124531 16 92 1.0 6.0 0.00 0.03 0.00 73 1030.2
20230129123030 16 14 0.0 5.0 0.00 0.03 0.00 74 1030.0
20230129121532 16 130 2.0 5.0 0.00 0.03 0.00 74 1029.6
20230129120032 16 149 3.0 6.0 0.00 0.03 0.00 75 1029.3
20230129114529 16 141 2.0 6.0 0.00 0.03 0.00 75 1029.3
20230129113033 16 149 4.0 7.0 0.00 0.03 0.00 76 1029.1
20230129111605 16 157 6.0 8.0 0.00 0.03 0.00 77 1028.9
20230129110032 17 160 5.0 8.0 0.00 0.03 0.00 77 1028.8
20230129104605 17 158 6.0 11.0 0.00 0.03 0.00 75 1028.8
20230129103106 18 140 3.0 11.0 0.00 0.03 0.00 75 1028.6
20230129101534 18 141 2.0 4.0 0.00 0.03 0.00 76 1028.5
20230129094608 18 165 2.0 5.0 0.00 0.03 0.00 78 1028.1
20230129091535 19 45 0.0 2.0 0.00 0.03 0.00 77 1027.9
20230129084531 20 64 1.0 4.0 0.00 0.03 0.00 76 1027.6
20230129083153 21 41 2.0 6.0 0.00 0.03 0.00 75 1027.6
20230129081543 22 84 2.0 5.0 0.00 0.03 0.00 75 1027.6
20230129080035 22 50 3.0 10.0 0.00 0.03 0.00 76 1027.4
20230129074537 22 45 3.0 7.0 0.00 0.03 0.03 79 1027.3
20230129073028 22 43 3.0 7.0 0.00 0.03 0.03 81 1027.1
20230129071533 22 41 2.0 7.0 0.00 0.03 0.03 82 1027.0
20230129064529 22 25 1.0 9.0 0.00 0.03 0.03 82 1026.7
20230129063038 23 52 1.0 4.0 0.00 0.03 0.03 82 1026.6
20230129061529 24 46 1.0 4.0 0.00 0.03 0.03 81 1026.4
20230129054529 25 55 2.0 7.0 0.00 0.03 0.03 80 1025.9
20230129053033 26 47 4.0 10.0 0.00 0.03 0.03 80 1025.7
20230129051536 27 48 4.0 8.0 0.00 0.03 0.03 81 1025.3
20230129050036 27 46 4.0 9.0 0.00 0.03 0.03 82 1025.0
20230129043037 28 49 4.0 9.0 0.00 0.03 0.03 84 1024.5
20230129041531 28 51 3.0 7.0 0.00 0.03 0.03 84 1024.2
20230129040029 29 50 4.0 10.0 0.00 0.03 0.03 84 1024.1
20230129034535 29 48 4.0 12.0 0.00 0.03 0.03 84 1023.8
20230129033035 30 50 4.0 12.0 0.00 0.03 0.03 86 1023.7
20230129031527 30 44 3.0 9.0 0.00 0.03 0.03 88 1023.5
20230129030033 31 46 4.0 10.0 0.01 0.03 0.03 90 1023.3
20230129024533 31 45 2.0 6.0 0.01 0.03 0.03 92 1023.0
20230129023030 31 46 3.0 9.0 0.01 0.03 0.03 93 1022.8
20230129021535 31 49 3.0 9.0 0.01 0.03 0.02 94 1022.4
20230129020031 31 47 0.0 5.0 0.00 0.02 0.02 95 1022.2
20230129014533 31 48 2.0 6.0 0.00 0.02 0.02 95 1022.0
20230129011532 31 46 1.0 5.0 0.01 0.02 0.02 95 1021.7
20230129010129 31 39 2.0 6.0 0.01 0.02 0.02 95 1021.5
20230129004606 31 11 1.0 3.0 0.01 0.02 0.02 95 1021.4
20230129003031 31 5 0.0 3.0 0.01 0.02 0.01 94 1021.1
20230129001533 31 8 0.0 3.0 0.00 0.01 0.01 94 1021.0
20230129000033 31 2 1.0 4.0 0.00 0.01 0.01 94 1020.8
20230128234528 32 351 2.0 5.0 0.00 0.01 0.01 94 1020.7
20230128231533 32 297 1.0 3.0 0.01 0.01 0.01 94 1020.5
20230128230032 32 310 3.0 5.0 0.01 0.01 0.01 94 1020.3
20230128224535 32 346 3.0 7.0 0.01 0.01 0.01 94 1019.9
20230128223029 32 12 3.0 8.0 0.01 0.01 0.00 94 1019.7
20230128221531 32 42 0.0 4.0 0.00 0.00 0.00 94 1019.4
20230128220029 32 45 1.0 4.0 0.00 0.00 0.00 94 1019.3
20230128214532 32 46 3.0 6.0 0.00 0.00 0.00 93 1019.2
20230128213034 32 46 6.0 15.0 0.00 0.00 0.00 92 1019.1
20230128211605 32 52 8.0 17.0 0.00 0.00 0.00 91 1019.1
20230128210026 33 59 7.0 16.0 0.00 0.00 0.00 89 1019.0
20230128204532 37 49 8.0 23.0 0.00 0.00 0.00 83 1019.2
20230128203029 41 9 6.0 14.0 0.00 0.00 0.00 83 1019.2
20230128201651 41 11 4.0 12.0 0.00 0.00 0.00 83 1019.2
20230128200033 41 39 4.0 9.0 0.00 0.00 0.00 83 1019.1
20230128194530 41 33 5.0 9.0 0.00 0.00 0.00 83 1019.2
20230128191603 41 7 1.0 5.0 0.00 0.00 0.00 85 1019.4
20230128190031 41 188 0.0 2.0 0.00 0.00 0.00 85 1019.4
20230128184534 40 194 2.0 4.0 0.00 0.00 0.00 87 1019.5
20230128183034 39 197 2.0 4.0 0.00 0.00 0.00 88 1019.4